createdAt,value
2018-07-02T00:00:20.955Z,19.05
2018-07-02T00:01:01.172Z,19.02
2018-07-02T00:01:41.682Z,19.05
2018-07-02T00:02:22.080Z,19.05
2018-07-02T00:03:02.426Z,18.96
2018-07-02T00:03:42.861Z,18.96
2018-07-02T00:04:23.436Z,18.9
2018-07-02T00:05:03.790Z,18.84
2018-07-02T00:05:44.333Z,18.87
2018-07-02T00:06:24.663Z,18.87
2018-07-02T00:07:05.182Z,18.79
2018-07-02T00:07:45.577Z,18.82
2018-07-02T00:08:26.042Z,18.78
2018-07-02T00:09:06.417Z,18.84
2018-07-02T00:09:46.923Z,18.87
2018-07-02T00:10:28.146Z,18.78
2018-07-02T00:11:08.402Z,18.83
2018-07-02T00:11:49.007Z,18.82
2018-07-02T00:12:29.406Z,18.83
2018-07-02T00:13:09.847Z,18.75
2018-07-02T00:13:50.355Z,18.82
2018-07-02T00:14:30.721Z,18.79
2018-07-02T00:15:11.496Z,18.78
2018-07-02T00:15:51.849Z,18.69
2018-07-02T00:16:32.798Z,18.82
2018-07-02T00:17:13.331Z,18.78
2018-07-02T00:17:53.844Z,18.84
2018-07-02T00:18:34.532Z,18.76
2018-07-02T00:19:14.590Z,18.83
2018-07-02T00:19:55.149Z,18.78
2018-07-02T00:20:35.459Z,18.86
2018-07-02T00:21:16.580Z,18.86
2018-07-02T00:21:57.109Z,18.78
2018-07-02T00:22:37.537Z,18.83
2018-07-02T00:23:18.613Z,18.86
2018-07-02T00:23:59.033Z,18.82
2018-07-02T00:24:39.816Z,18.91
2018-07-02T00:25:20.154Z,18.83
2018-07-02T00:26:00.657Z,18.89
2018-07-02T00:26:41.155Z,18.84
2018-07-02T00:27:21.600Z,18.86
2018-07-02T00:28:01.962Z,18.83
2018-07-02T00:28:42.395Z,18.89
2018-07-02T00:29:22.772Z,18.87
2018-07-02T00:30:04.827Z,18.79
2018-07-02T00:30:45.384Z,18.86
2018-07-02T00:31:25.940Z,18.78
2018-07-02T00:32:06.376Z,18.86
2018-07-02T00:32:46.785Z,18.89
2018-07-02T00:33:27.456Z,18.82
2018-07-02T00:34:08.194Z,18.87
2018-07-02T00:34:48.494Z,18.82
2018-07-02T00:35:28.947Z,18.86
2018-07-02T00:36:09.339Z,18.84
2018-07-02T00:36:49.783Z,18.78
2018-07-02T00:37:30.268Z,18.84
2018-07-02T00:38:11.116Z,18.83
2018-07-02T00:38:51.036Z,18.78
2018-07-02T00:39:32.197Z,18.83
2018-07-02T00:40:11.900Z,18.75
2018-07-02T00:40:52.560Z,18.84
2018-07-02T00:41:32.946Z,18.86
2018-07-02T00:42:13.405Z,18.87
2018-07-02T00:42:53.821Z,18.86
2018-07-02T00:43:34.292Z,18.89
2018-07-02T00:44:14.804Z,18.83
2018-07-02T00:44:55.427Z,18.84
2018-07-02T00:45:35.879Z,18.79
2018-07-02T00:46:16.254Z,18.72
2018-07-02T00:46:56.929Z,18.78
2018-07-02T00:47:37.294Z,18.69
2018-07-02T00:48:17.674Z,18.74
2018-07-02T00:48:58.134Z,18.78
2018-07-02T00:49:38.660Z,18.69
2018-07-02T00:50:19.155Z,18.83
2018-07-02T00:50:59.683Z,18.72
2018-07-02T00:51:40.157Z,18.75
2018-07-02T00:52:20.624Z,18.72
2018-07-02T00:53:01.259Z,18.6
2018-07-02T00:53:41.771Z,18.65
2018-07-02T00:54:22.410Z,18.66
2018-07-02T00:55:02.519Z,18.65
2018-07-02T00:55:43.052Z,18.72
2018-07-02T00:56:23.418Z,18.72
2018-07-02T00:57:03.809Z,18.71
2018-07-02T00:57:44.189Z,18.74
2018-07-02T00:58:24.700Z,18.71
2018-07-02T00:59:05.065Z,18.72
2018-07-02T00:59:45.440Z,18.72
2018-07-02T01:00:25.995Z,18.74
2018-07-02T01:01:06.437Z,18.74
2018-07-02T01:01:47.002Z,18.69
2018-07-02T01:02:27.456Z,18.62
2018-07-02T01:03:07.899Z,18.66
2018-07-02T01:03:48.310Z,18.68
2018-07-02T01:04:28.766Z,18.62
2018-07-02T01:05:09.294Z,18.59
2018-07-02T01:05:49.647Z,18.65
2018-07-02T01:06:30.136Z,18.6
2018-07-02T01:07:11.213Z,18.65
2018-07-02T01:07:51.692Z,18.64
2018-07-02T01:08:32.121Z,18.64
2018-07-02T01:09:12.635Z,18.66
2018-07-02T01:09:52.994Z,18.56
2018-07-02T01:10:35.341Z,18.59
2018-07-02T01:11:15.762Z,18.5
2018-07-02T01:11:56.107Z,18.51
2018-07-02T01:12:36.527Z,18.46
2018-07-02T01:13:16.880Z,18.49
2018-07-02T01:13:57.317Z,18.39
2018-07-02T01:14:37.748Z,18.35
2018-07-02T01:15:18.428Z,18.44
2018-07-02T01:15:58.785Z,18.35
2018-07-02T01:16:39.223Z,18.35
2018-07-02T01:17:20.175Z,18.39
2018-07-02T01:18:00.527Z,18.36
2018-07-02T01:18:40.975Z,18.34
2018-07-02T01:19:21.404Z,18.36
2018-07-02T01:20:01.817Z,18.44
2018-07-02T01:20:42.205Z,18.34
2018-07-02T01:21:22.620Z,18.38
2018-07-02T01:22:03.064Z,18.34
2018-07-02T01:22:43.407Z,18.38
2018-07-02T01:23:23.859Z,18.32
2018-07-02T01:24:04.225Z,18.35
2018-07-02T01:24:44.659Z,18.31
2018-07-02T01:25:25.195Z,18.28
2018-07-02T01:26:05.745Z,18.34
2018-07-02T01:26:46.245Z,18.29
2018-07-02T01:27:26.919Z,18.38
2018-07-02T01:28:07.313Z,18.28
2018-07-02T01:28:47.737Z,18.21
2018-07-02T01:29:28.136Z,18.28
2018-07-02T01:30:08.780Z,18.32
2018-07-02T01:30:49.130Z,18.26
2018-07-02T01:31:29.425Z,18.21
2018-07-02T01:32:09.895Z,18.23
2018-07-02T01:32:50.280Z,18.26
2018-07-02T01:33:30.720Z,18.32
2018-07-02T01:34:11.150Z,18.31
2018-07-02T01:34:51.511Z,18.21
2018-07-02T01:35:31.968Z,18.31
2018-07-02T01:36:12.294Z,18.31
2018-07-02T01:36:52.684Z,18.32
2018-07-02T01:37:33.092Z,18.23
2018-07-02T01:38:13.503Z,18.21
2018-07-02T01:38:53.926Z,18.21
2018-07-02T01:39:35.422Z,18.31
2018-07-02T01:40:14.695Z,18.29
2018-07-02T01:40:55.148Z,18.32
2018-07-02T01:41:35.581Z,18.34
2018-07-02T01:42:15.987Z,18.38
2018-07-02T01:42:56.426Z,18.34
2018-07-02T01:43:36.760Z,18.41
2018-07-02T01:44:17.223Z,18.34
2018-07-02T01:44:57.618Z,18.41
2018-07-02T01:45:38.052Z,18.35
2018-07-02T01:46:18.490Z,18.35
2018-07-02T01:46:58.885Z,18.32
2018-07-02T01:47:39.354Z,18.46
2018-07-02T01:48:19.738Z,18.36
2018-07-02T01:49:00.202Z,18.31
2018-07-02T01:49:40.604Z,18.46
2018-07-02T01:50:21.020Z,18.38
2018-07-02T01:51:01.384Z,18.44
2018-07-02T01:51:41.821Z,18.39
2018-07-02T01:52:22.347Z,18.34
2018-07-02T01:53:02.902Z,18.31
2018-07-02T01:53:43.085Z,18.35
2018-07-02T01:54:23.433Z,18.31
2018-07-02T01:55:03.857Z,18.34
2018-07-02T01:55:44.324Z,18.34
2018-07-02T01:56:24.727Z,18.41
2018-07-02T01:57:05.233Z,18.36
2018-07-02T01:57:45.500Z,18.38
2018-07-02T01:58:25.897Z,18.46
2018-07-02T01:59:06.356Z,18.32
2018-07-02T01:59:46.788Z,18.44
2018-07-02T02:00:27.214Z,18.34
2018-07-02T02:01:07.709Z,18.34
2018-07-02T02:01:48.099Z,18.35
2018-07-02T02:02:28.605Z,18.32
2018-07-02T02:03:08.972Z,18.26
2018-07-02T02:03:49.369Z,18.28
2018-07-02T02:04:29.796Z,18.28
2018-07-02T02:05:10.269Z,18.23
2018-07-02T02:05:50.645Z,18.23
2018-07-02T02:06:31.056Z,18.26
2018-07-02T02:07:11.451Z,18.2
2018-07-02T02:07:51.880Z,18.32
2018-07-02T02:08:32.307Z,18.21
2018-07-02T02:09:12.743Z,18.26
2018-07-02T02:09:53.205Z,18.2
2018-07-02T02:10:33.559Z,18.16
2018-07-02T02:11:13.938Z,18.21
2018-07-02T02:11:54.350Z,18.19
2018-07-02T02:12:34.824Z,18.13
2018-07-02T02:13:15.311Z,18.09
2018-07-02T02:13:55.643Z,18.07
2018-07-02T02:14:36.127Z,18.04
2018-07-02T02:15:16.567Z,18.02
2018-07-02T02:15:56.920Z,18.01
2018-07-02T02:16:37.352Z,17.96
2018-07-02T02:17:17.723Z,17.95
2018-07-02T02:17:58.176Z,17.95
2018-07-02T02:18:38.595Z,17.94
2018-07-02T02:19:19.063Z,17.96
2018-07-02T02:19:59.423Z,17.96
2018-07-02T02:20:39.813Z,17.96
2018-07-02T02:21:20.226Z,17.96
2018-07-02T02:22:00.656Z,17.91
2018-07-02T02:22:41.646Z,17.91
2018-07-02T02:23:22.015Z,17.86
2018-07-02T02:24:02.471Z,17.81
2018-07-02T02:24:42.905Z,17.71
2018-07-02T02:25:23.368Z,17.76
2018-07-02T02:26:03.693Z,17.76
2018-07-02T02:26:44.224Z,17.71
2018-07-02T02:27:24.620Z,17.79
2018-07-02T02:28:05.101Z,17.71
2018-07-02T02:28:45.478Z,17.77
2018-07-02T02:29:25.901Z,17.7
2018-07-02T02:30:06.464Z,17.76
2018-07-02T02:30:46.825Z,17.7
2018-07-02T02:31:27.222Z,17.8
2018-07-02T02:32:07.643Z,17.7
2018-07-02T02:32:48.035Z,17.76
2018-07-02T02:33:28.625Z,17.7
2018-07-02T02:34:08.896Z,17.8
2018-07-02T02:34:49.325Z,17.87
2018-07-02T02:35:29.724Z,17.74
2018-07-02T02:36:10.126Z,17.8
2018-07-02T02:36:50.531Z,17.83
2018-07-02T02:37:30.940Z,17.86
2018-07-02T02:38:11.392Z,17.84
2018-07-02T02:38:51.796Z,17.89
2018-07-02T02:39:32.169Z,17.86
2018-07-02T02:40:12.624Z,17.84
2018-07-02T02:40:53.096Z,17.8
2018-07-02T02:41:33.373Z,17.92
2018-07-02T02:42:13.805Z,17.99
2018-07-02T02:42:54.280Z,17.96
2018-07-02T02:43:34.647Z,17.94
2018-07-02T02:44:15.036Z,17.83
2018-07-02T02:44:55.436Z,17.84
2018-07-02T02:45:36.525Z,17.92
2018-07-02T02:46:16.255Z,17.87
2018-07-02T02:46:56.757Z,17.92
2018-07-02T02:47:37.094Z,17.83
2018-07-02T02:48:17.520Z,17.98
2018-07-02T02:48:59.630Z,17.92
2018-07-02T02:49:40.062Z,17.92
2018-07-02T02:50:20.506Z,17.83
2018-07-02T02:51:00.993Z,17.84
2018-07-02T02:51:41.357Z,17.84
2018-07-02T02:52:21.732Z,17.86
2018-07-02T02:53:02.139Z,17.83
2018-07-02T02:53:42.564Z,17.68
2018-07-02T02:54:22.980Z,17.8
2018-07-02T02:55:03.399Z,17.8
2018-07-02T02:55:45.703Z,17.86
2018-07-02T02:56:26.034Z,17.86
2018-07-02T02:57:06.471Z,17.84
2018-07-02T02:57:46.973Z,17.86
2018-07-02T02:58:27.296Z,17.8
2018-07-02T02:59:07.765Z,17.74
2018-07-02T02:59:48.135Z,17.7
2018-07-02T03:00:28.539Z,17.77
2018-07-02T03:01:08.937Z,17.74
2018-07-02T03:01:49.350Z,17.65
2018-07-02T03:02:29.775Z,17.65
2018-07-02T03:03:10.174Z,17.66
2018-07-02T03:03:50.622Z,17.6
2018-07-02T03:04:31.049Z,17.6
2018-07-02T03:05:11.428Z,17.66
2018-07-02T03:05:51.818Z,17.7
2018-07-02T03:06:32.207Z,17.76
2018-07-02T03:07:12.580Z,17.74
2018-07-02T03:07:52.965Z,17.71
2018-07-02T03:08:33.398Z,17.71
2018-07-02T03:09:13.733Z,17.74
2018-07-02T03:09:54.181Z,17.8
2018-07-02T03:10:34.533Z,17.74
2018-07-02T03:11:15.046Z,17.79
2018-07-02T03:11:55.560Z,17.81
2018-07-02T03:12:35.980Z,17.83
2018-07-02T03:13:16.276Z,17.76
2018-07-02T03:13:56.658Z,17.66
2018-07-02T03:14:37.157Z,17.71
2018-07-02T03:15:17.532Z,17.71
2018-07-02T03:15:57.921Z,17.7
2018-07-02T03:16:38.287Z,17.65
2018-07-02T03:17:18.717Z,17.49
2018-07-02T03:17:59.166Z,17.57
2018-07-02T03:18:39.619Z,17.55
2018-07-02T03:19:20.037Z,17.47
2018-07-02T03:20:00.489Z,17.51
2018-07-02T03:20:40.867Z,17.46
2018-07-02T03:21:21.345Z,17.43
2018-07-02T03:22:01.727Z,17.51
2018-07-02T03:22:42.103Z,17.47
2018-07-02T03:23:22.623Z,17.43
2018-07-02T03:24:03.021Z,17.47
2018-07-02T03:24:43.444Z,17.53
2018-07-02T03:25:23.802Z,17.49
2018-07-02T03:26:04.190Z,17.46
2018-07-02T03:26:44.646Z,17.45
2018-07-02T03:27:25.076Z,17.45
2018-07-02T03:28:05.490Z,17.51
2018-07-02T03:28:45.947Z,17.46
2018-07-02T03:29:26.224Z,17.39
2018-07-02T03:30:06.742Z,17.39
2018-07-02T03:30:47.139Z,17.32
2018-07-02T03:31:27.870Z,17.39
2018-07-02T03:32:08.577Z,17.36
2018-07-02T03:32:48.951Z,17.32
2018-07-02T03:33:29.217Z,17.33
2018-07-02T03:34:09.651Z,17.3
2018-07-02T03:34:50.048Z,17.32
2018-07-02T03:35:30.495Z,17.39
2018-07-02T03:36:10.937Z,17.35
2018-07-02T03:36:51.301Z,17.39
2018-07-02T03:37:31.794Z,17.32
2018-07-02T03:38:12.179Z,17.33
2018-07-02T03:38:52.652Z,17.35
2018-07-02T03:39:32.988Z,17.33
2018-07-02T03:40:13.404Z,17.4
2018-07-02T03:40:53.842Z,17.27
2018-07-02T03:41:34.209Z,17.38
2018-07-02T03:42:14.611Z,17.38
2018-07-02T03:42:55.010Z,17.38
2018-07-02T03:43:35.466Z,17.27
2018-07-02T03:44:15.915Z,17.33
2018-07-02T03:44:56.348Z,17.33
2018-07-02T03:45:36.780Z,17.32
2018-07-02T03:46:17.232Z,17.24
2018-07-02T03:46:57.579Z,17.3
2018-07-02T03:47:38.032Z,17.21
2018-07-02T03:48:18.484Z,17.27
2018-07-02T03:48:58.882Z,17.3
2018-07-02T03:49:39.416Z,17.25
2018-07-02T03:50:19.773Z,17.18
2018-07-02T03:51:00.199Z,17.22
2018-07-02T03:51:40.582Z,17.18
2018-07-02T03:52:20.997Z,17.2
2018-07-02T03:53:01.416Z,17.21
2018-07-02T03:53:41.830Z,17.17
2018-07-02T03:54:22.288Z,17.14
2018-07-02T03:55:02.691Z,17.21
2018-07-02T03:55:43.046Z,17.12
2018-07-02T03:56:23.572Z,17.17
2018-07-02T03:57:03.950Z,17.12
2018-07-02T03:57:44.372Z,17.14
2018-07-02T03:58:24.788Z,17.14
2018-07-02T03:59:05.132Z,17.2
2018-07-02T03:59:45.544Z,17.24
2018-07-02T04:00:25.998Z,17.2
2018-07-02T04:01:06.475Z,17.18
2018-07-02T04:01:46.871Z,17.28
2018-07-02T04:02:27.152Z,17.28
2018-07-02T04:47:13.747Z,22.04
2018-07-02T04:51:45.942Z,22.64
2018-07-02T04:52:26.382Z,22.79
2018-07-02T04:53:06.715Z,22.91
2018-07-02T04:53:47.154Z,22.99
2018-07-02T04:54:27.509Z,23.03
2018-07-02T04:55:07.908Z,23.11
2018-07-02T04:55:48.356Z,23.26
2018-07-02T04:56:28.718Z,23.39
2018-07-02T05:00:14.571Z,23.79
2018-07-02T05:00:54.759Z,23.9
2018-07-02T05:01:35.107Z,23.96
2018-07-02T05:02:15.526Z,24.18
2018-07-02T05:02:55.940Z,24.23
2018-07-02T05:03:36.325Z,24.3
2018-07-02T05:04:16.773Z,24.6
2018-07-02T05:04:57.234Z,24.67
2018-07-02T05:05:37.556Z,24.86
2018-07-02T05:06:17.971Z,24.97
2018-07-02T05:06:58.424Z,25.07
2018-07-02T05:18:05.733Z,26.69
2018-07-02T05:18:45.971Z,26.83
2018-07-02T05:19:26.367Z,26.93
2018-07-02T05:20:06.871Z,26.9
2018-07-02T05:20:47.587Z,27.03
2018-07-02T05:22:25.801Z,27.42
2018-07-02T05:23:06.101Z,27.43
2018-07-02T05:23:46.544Z,27.48
2018-07-02T05:24:27.170Z,27.48
2018-07-02T05:25:07.618Z,27.5
2018-07-02T05:25:48.063Z,27.53
2018-07-02T05:26:28.421Z,27.53
2018-07-02T05:27:08.891Z,27.63
2018-07-02T05:27:49.362Z,27.71
2018-07-02T05:28:29.904Z,27.71
2018-07-02T05:29:10.360Z,27.62
2018-07-02T05:29:50.808Z,27.65
2018-07-02T05:30:31.215Z,27.84
2018-07-02T05:31:11.588Z,27.93
2018-07-02T05:31:52.095Z,27.69
2018-07-02T05:32:32.478Z,27.65
2018-07-02T05:33:12.881Z,27.49
2018-07-02T05:33:53.337Z,27.3
2018-07-02T05:34:33.764Z,26.83
2018-07-02T05:35:14.172Z,26.6
2018-07-02T05:37:04.905Z,26.06
2018-07-02T05:37:44.826Z,26.19
2018-07-02T05:38:25.268Z,25.97
2018-07-02T05:39:05.612Z,25.81
2018-07-02T05:39:46.070Z,25.86
2018-07-02T05:40:26.821Z,25.61
2018-07-02T05:41:07.548Z,25.42
2018-07-02T05:41:47.961Z,25.35
2018-07-02T05:43:37.190Z,24.83
2018-07-02T05:44:17.972Z,24.84
2018-07-02T05:46:42.547Z,24.83
2018-07-02T05:48:26.225Z,24.87
2018-07-02T05:50:21.087Z,25.3
2018-07-02T05:51:01.854Z,25.44
2018-07-02T05:51:42.194Z,25.66
2018-07-02T05:53:56.033Z,25.48
2018-07-02T05:54:36.161Z,25.48
2018-07-02T05:55:16.505Z,25.64
2018-07-02T05:55:57.073Z,25.63
2018-07-02T05:58:59.882Z,25.69
2018-07-02T05:59:40.353Z,25.69
2018-07-02T06:00:21.657Z,25.78
2018-07-02T06:01:02.090Z,25.71
2018-07-02T06:01:43.741Z,25.81
2018-07-02T06:02:24.489Z,25.81
2018-07-02T06:03:04.971Z,26.11
2018-07-02T06:03:54.233Z,26.13
2018-07-02T06:04:36.179Z,26.06
2018-07-02T06:05:19.097Z,26.03
2018-07-02T06:05:59.514Z,25.83
2018-07-02T06:06:39.867Z,25.81
2018-07-02T06:07:21.545Z,25.81
2018-07-02T06:08:03.187Z,25.85
2018-07-02T06:08:43.627Z,25.85
2018-07-02T06:09:24.800Z,25.94
2018-07-02T06:10:05.554Z,26.03
2018-07-02T06:10:46.579Z,25.97
2018-07-02T06:11:27.040Z,26.09
2018-07-02T06:12:07.590Z,26.12
2018-07-02T06:13:59.528Z,25.74
2018-07-02T06:14:42.551Z,25.63
2018-07-02T06:15:22.938Z,25.46
2018-07-02T06:16:03.390Z,25.2
2018-07-02T06:16:43.790Z,24.94
2018-07-02T06:17:24.196Z,24.67
2018-07-02T06:18:04.588Z,24.48
2018-07-02T06:18:45.051Z,24.55
2018-07-02T06:19:25.548Z,24.63
2018-07-02T06:20:07.031Z,24.52
2018-07-02T06:20:46.679Z,24.44
2018-07-02T06:21:27.180Z,24.49
2018-07-02T06:22:07.785Z,24.46
2018-07-02T06:23:55.887Z,24.77
2018-07-02T06:24:36.698Z,24.68
2018-07-02T06:25:17.122Z,24.7
2018-07-02T06:25:57.542Z,24.82
2018-07-02T06:26:37.921Z,24.7
2018-07-02T06:27:18.361Z,24.56
2018-07-02T06:27:58.765Z,24.52
2018-07-02T06:30:18.273Z,24.45
2018-07-02T06:30:58.554Z,24.45
2018-07-02T06:31:39.095Z,24.53
2018-07-02T06:32:19.625Z,24.59
2018-07-02T06:33:00.256Z,24.7
2018-07-02T06:33:41.783Z,24.84
2018-07-02T06:34:22.244Z,24.68
2018-07-02T06:35:02.896Z,24.39
2018-07-02T06:35:43.587Z,24.23
2018-07-02T06:36:24.844Z,24.3
2018-07-02T06:37:06.339Z,24.39
2018-07-02T06:37:48.487Z,24.6
2018-07-02T06:38:30.207Z,24.68
2018-07-02T06:39:11.405Z,24.52
2018-07-02T06:39:52.960Z,24.3
2018-07-02T06:40:34.224Z,24.05
2018-07-02T06:41:15.787Z,24.02
2018-07-02T06:41:56.377Z,23.87
2018-07-02T06:42:37.124Z,23.93
2018-07-02T06:43:17.269Z,23.87
2018-07-02T06:43:57.928Z,23.84
2018-07-02T06:44:39.373Z,23.96
2018-07-02T06:48:07.454Z,24.15
2018-07-02T06:48:47.780Z,24.37
2018-07-02T06:49:28.264Z,24.61
2018-07-02T06:50:08.649Z,24.9
2018-07-02T06:50:49.192Z,25.02
2018-07-02T06:51:29.751Z,25.05
2018-07-02T06:52:10.462Z,25.12
2018-07-02T06:52:51.019Z,25.09
2018-07-02T06:56:13.979Z,24.97
2018-07-02T06:56:54.757Z,24.93
2018-07-02T06:57:35.687Z,24.86
2018-07-02T06:58:16.346Z,24.55
2018-07-02T06:58:56.617Z,24.45
2018-07-02T06:59:38.770Z,24.27
2018-07-02T07:00:20.151Z,24.29
2018-07-02T07:01:00.556Z,24.23
2018-07-02T07:02:50.311Z,24.41
2018-07-02T07:03:32.778Z,24.44
2018-07-02T07:04:13.478Z,24.39
2018-07-02T07:04:55.273Z,24.63
2018-07-02T07:05:36.765Z,24.52
2018-07-02T07:06:19.424Z,24.26
2018-07-02T07:07:00.537Z,24.27
2018-07-02T07:07:42.768Z,24.19
2018-07-02T07:08:23.196Z,24.24
2018-07-02T07:09:03.655Z,24.24
2018-07-02T07:09:46.617Z,24.24
2018-07-02T07:10:27.134Z,24.29
2018-07-02T07:11:08.946Z,24.48
2018-07-02T07:11:48.794Z,24.56
2018-07-02T07:12:30.133Z,24.63
2018-07-02T07:13:11.465Z,24.84
2018-07-02T07:13:51.881Z,24.89
2018-07-02T07:14:33.915Z,24.94
2018-07-02T07:15:15.171Z,25.16
2018-07-02T07:15:56.922Z,25.26
2018-07-02T07:16:37.632Z,25.42
2018-07-02T07:17:18.799Z,25.39
2018-07-02T07:17:59.249Z,25.19
2018-07-02T07:18:41.828Z,25.2
2018-07-02T07:19:23.329Z,25.07
2018-07-02T07:20:02.947Z,24.92
2018-07-02T07:20:43.613Z,24.9
2018-07-02T07:22:34.481Z,24.61
2018-07-02T07:23:15.600Z,24.66
2018-07-02T07:23:55.967Z,24.82
2018-07-02T07:24:36.418Z,24.86
2018-07-02T07:25:16.777Z,24.67
2018-07-02T07:25:57.630Z,24.7
2018-07-02T07:26:39.036Z,24.59
2018-07-02T07:27:19.523Z,24.66
2018-07-02T07:28:01.823Z,24.64
2018-07-02T07:28:42.243Z,24.67
2018-07-02T07:29:23.507Z,24.7
2018-07-02T07:30:05.049Z,24.68
2018-07-02T07:30:45.705Z,24.67
2018-07-02T07:32:24.435Z,24.48
2018-07-02T07:33:04.154Z,24.49
2018-07-02T07:33:45.495Z,24.53
2018-07-02T07:34:26.405Z,24.6
2018-07-02T07:35:07.977Z,24.52
2018-07-02T07:35:49.262Z,24.71
2018-07-02T07:36:29.397Z,24.7
2018-07-02T07:37:09.746Z,24.74
2018-07-02T07:37:50.196Z,24.82
2018-07-02T07:38:30.616Z,24.9
2018-07-02T07:39:11.008Z,25.09
2018-07-02T07:39:51.537Z,25.3
2018-07-02T07:40:32.675Z,25.39
2018-07-02T07:41:13.881Z,25.48
2018-07-02T07:41:55.022Z,25.45
2018-07-02T07:42:35.736Z,25.61
2018-07-02T07:43:16.198Z,25.72
2018-07-02T07:43:57.092Z,25.71
2018-07-02T07:44:38.106Z,25.45
2018-07-02T07:45:18.678Z,25.36
2018-07-02T07:45:59.909Z,25.36
2018-07-02T07:46:41.528Z,25.48
2018-07-02T07:47:21.900Z,25.57
2018-07-02T07:48:03.304Z,25.63
2018-07-02T07:48:44.764Z,25.6
2018-07-02T07:49:25.226Z,25.48
2018-07-02T07:50:06.754Z,25.39
2018-07-02T07:50:47.275Z,25.14
2018-07-02T07:51:27.793Z,25.09
2018-07-02T07:52:08.410Z,25.07
2018-07-02T07:52:48.929Z,25.02
2018-07-02T07:53:29.456Z,24.98
2018-07-02T07:54:10.060Z,24.94
2018-07-02T07:54:51.806Z,24.92
2018-07-02T07:55:32.341Z,24.93
2018-07-02T07:56:12.894Z,25.07
2018-07-02T07:56:54.144Z,25.26
2018-07-02T07:57:34.839Z,25.3
2018-07-02T07:58:15.282Z,25.42
2018-07-02T07:58:56.477Z,25.3
2018-07-02T07:59:37.240Z,25.23
2018-07-02T08:00:17.726Z,25.09
2018-07-02T08:00:58.383Z,24.92
2018-07-02T08:01:39.385Z,24.99
2018-07-02T08:02:20.570Z,25.16
2018-07-02T08:03:01.056Z,25.24
2018-07-02T08:03:41.527Z,25.35
2018-07-02T08:04:23.014Z,25.29
2018-07-02T08:05:03.566Z,25.23
2018-07-02T08:05:44.462Z,25.23
2018-07-02T08:06:24.990Z,25.04
2018-07-02T08:07:05.564Z,24.93
2018-07-02T08:07:46.787Z,24.82
2018-07-02T08:08:27.754Z,24.7
2018-07-02T08:09:08.548Z,24.84
2018-07-02T08:09:48.978Z,24.8
2018-07-02T08:10:31.448Z,24.83
2018-07-02T08:11:12.354Z,24.79
2018-07-02T08:11:55.483Z,24.71
2018-07-02T08:12:35.826Z,24.87
2018-07-02T08:13:17.110Z,24.86
2018-07-02T08:13:57.648Z,24.9
2018-07-02T08:14:38.752Z,24.93
2018-07-02T08:15:19.762Z,25.04
2018-07-02T08:16:03.763Z,25.23
2018-07-02T08:16:44.035Z,25.29
2018-07-02T08:17:24.606Z,25.42
2018-07-02T08:18:05.974Z,25.59
2018-07-02T08:18:50.519Z,25.69
2018-07-02T08:19:31.866Z,25.85
2018-07-02T08:20:12.756Z,25.83
2018-07-02T08:20:53.133Z,25.89
2018-07-02T08:21:33.735Z,25.9
2018-07-02T08:22:14.271Z,25.94
2018-07-02T08:22:55.191Z,25.83
2018-07-02T08:23:35.375Z,25.72
2018-07-02T08:24:16.749Z,25.74
2018-07-02T08:24:56.772Z,25.71
2018-07-02T08:25:38.188Z,25.82
2018-07-02T08:26:18.514Z,25.81
2018-07-02T08:26:59.018Z,26.03
2018-07-02T08:27:39.643Z,26.2
2018-07-02T08:28:24.529Z,26.34
2018-07-02T08:29:06.640Z,26.49
2018-07-02T08:29:47.677Z,26.64
2018-07-02T08:30:31.374Z,26.81
2018-07-02T08:31:13.097Z,26.97
2018-07-02T08:31:53.999Z,27.15
2018-07-02T08:32:34.457Z,27.18
2018-07-02T08:33:15.349Z,27.52
2018-07-02T08:33:57.392Z,27.77
2018-07-02T08:34:38.055Z,27.86
2018-07-02T08:35:20.293Z,27.63
2018-07-02T08:36:00.118Z,27.53
2018-07-02T08:36:40.620Z,27.55
2018-07-02T08:37:23.082Z,27.45
2018-07-02T08:38:05.295Z,27.25
2018-07-02T08:38:45.453Z,27.28
2018-07-02T08:39:26.690Z,27.39
2018-07-02T08:40:07.618Z,27.48
2018-07-02T08:40:49.993Z,27.55
2018-07-02T08:41:30.885Z,27.65
2018-07-02T08:42:11.660Z,27.62
2018-07-02T08:42:52.903Z,27.63
2018-07-02T08:43:35.290Z,27.84
2018-07-02T08:44:15.069Z,27.9
2018-07-02T08:44:56.441Z,27.8
2018-07-02T08:45:38.470Z,27.84
2018-07-02T08:46:19.913Z,27.78
2018-07-02T08:47:00.508Z,27.84
2018-07-02T08:47:41.207Z,28.02
2018-07-02T08:48:21.902Z,28.2
2018-07-02T08:49:02.679Z,28.4
2018-07-02T08:49:43.013Z,28.6
2018-07-02T08:50:23.526Z,28.91
2018-07-02T08:51:04.024Z,29.08
2018-07-02T08:51:45.283Z,29.18
2018-07-02T08:52:25.913Z,29.23
2018-07-02T08:53:08.501Z,29.02
2018-07-02T08:53:48.833Z,28.89
2018-07-02T08:54:29.338Z,28.69
2018-07-02T08:55:11.134Z,28.24
2018-07-02T08:55:51.480Z,27.93
2018-07-02T08:56:31.945Z,28.02
2018-07-02T08:57:12.515Z,27.93
2018-07-02T08:57:53.827Z,27.95
2018-07-02T08:58:33.879Z,28.13
2018-07-02T08:59:14.346Z,28.28
2018-07-02T08:59:55.114Z,28.38
2018-07-02T09:00:35.878Z,28.65
2018-07-02T09:01:16.448Z,28.74
2018-07-02T09:01:58.834Z,28.65
2018-07-02T09:02:39.934Z,28.67
2018-07-02T09:03:22.663Z,28.73
2018-07-02T09:04:03.206Z,28.69
2018-07-02T09:04:43.780Z,28.72
2018-07-02T09:05:24.270Z,28.79
2018-07-02T09:06:04.897Z,28.79
2018-07-02T09:06:45.746Z,28.74
2018-07-02T09:07:26.195Z,28.73
2018-07-02T09:08:07.066Z,28.62
2018-07-02T09:08:47.590Z,28.77
2018-07-02T09:09:28.040Z,28.77
2018-07-02T09:10:09.486Z,28.54
2018-07-02T09:10:49.562Z,28.32
2018-07-02T09:11:30.933Z,28.25
2018-07-02T09:12:12.298Z,28.14
2018-07-02T09:12:52.822Z,27.88
2018-07-02T09:13:32.595Z,27.83
2018-07-02T09:14:13.522Z,27.69
2018-07-02T09:14:53.835Z,27.52
2018-07-02T09:15:34.271Z,27.61
2018-07-02T09:16:14.754Z,27.63
2018-07-02T09:16:56.106Z,27.63
2018-07-02T09:17:37.060Z,27.74
2018-07-02T09:18:17.582Z,27.81
2018-07-02T09:18:58.080Z,27.84
2018-07-02T09:19:38.724Z,27.9
2018-07-02T09:20:19.185Z,28.05
2018-07-02T09:21:01.301Z,28.01
2018-07-02T09:21:42.017Z,27.93
2018-07-02T09:22:22.431Z,27.83
2018-07-02T09:23:03.062Z,27.81
2018-07-02T09:23:43.529Z,27.96
2018-07-02T09:24:24.452Z,28.01
2018-07-02T09:25:05.435Z,28.08
2018-07-02T09:25:45.868Z,28.02
2018-07-02T09:26:26.278Z,28.25
2018-07-02T09:27:07.416Z,28.5
2018-07-02T09:27:47.857Z,28.7
2018-07-02T09:28:28.773Z,28.74
2018-07-02T09:29:09.242Z,28.45
2018-07-02T09:29:49.718Z,28.33
2018-07-02T09:30:30.214Z,28.28
2018-07-02T09:31:10.796Z,28.36
2018-07-02T09:31:51.250Z,28.27
2018-07-02T09:32:31.734Z,28.24
2018-07-02T09:33:12.301Z,28.14
2018-07-02T09:33:52.982Z,28.02
2018-07-02T09:34:36.137Z,27.93
2018-07-02T09:35:17.224Z,27.88
2018-07-02T09:35:58.100Z,28.05
2018-07-02T09:36:38.583Z,28.03
2018-07-02T09:37:19.005Z,28.2
2018-07-02T09:37:59.356Z,28.33
2018-07-02T09:38:39.880Z,28.48
2018-07-02T09:39:20.320Z,28.58
2018-07-02T09:40:00.658Z,28.69
2018-07-02T09:40:41.296Z,28.76
2018-07-02T09:41:22.431Z,28.77
2018-07-02T09:42:02.627Z,28.74
2018-07-02T09:42:43.027Z,28.88
2018-07-02T09:43:23.486Z,28.95
2018-07-02T09:44:03.988Z,29.02
2018-07-02T09:44:45.120Z,29
2018-07-02T09:45:25.979Z,28.97
2018-07-02T09:46:06.431Z,29
2018-07-02T09:54:08.473Z,29.69
2018-07-02T09:54:49.424Z,29.67
2018-07-02T09:55:30.179Z,29.71
2018-07-02T09:56:11.795Z,29.86
2018-07-02T09:56:52.220Z,30.08
2018-07-02T09:57:33.095Z,30.23
2018-07-02T09:58:13.422Z,30.25
2018-07-02T09:58:54.181Z,30.28
2018-07-02T09:59:34.954Z,30.26
2018-07-02T10:00:15.470Z,30.22
2018-07-02T10:00:57.626Z,30.32
2018-07-02T10:01:38.529Z,30.26
2018-07-02T10:02:19.378Z,30.54
2018-07-02T10:03:00.071Z,30.57
2018-07-02T10:03:40.524Z,30.66
2018-07-02T10:04:20.990Z,30.68
2018-07-02T10:47:26.400Z,31.23
2018-07-02T10:48:06.070Z,31.42
2018-07-02T10:48:46.513Z,31.45
2018-07-02T10:49:27.334Z,31.4
2018-07-02T10:50:07.732Z,31.37
2018-07-02T10:50:48.286Z,31.31
2018-07-02T10:51:28.712Z,31.2
2018-07-02T10:52:09.723Z,31.31
2018-07-02T10:52:51.328Z,31.38
2018-07-02T10:53:33.089Z,31.46
2018-07-02T10:54:14.944Z,31.34
2018-07-02T10:54:55.274Z,31.18
2018-07-02T10:55:36.371Z,31.19
2018-07-02T10:56:16.224Z,31.09
2018-07-02T10:56:56.756Z,31.2
2018-07-02T10:57:37.135Z,31.32
2018-07-02T10:58:17.576Z,31.53
2018-07-02T10:58:58.026Z,31.74
2018-07-02T10:59:38.465Z,31.88
2018-07-02T11:00:19.528Z,32.09
2018-07-02T11:01:00.497Z,32.1